Time;durP1;ratioP1;P1;durP2;ratioP2;P2;SDS_P1;SDS_P2;PMS_P1;PMS_P2;Temp;Humidity;BMP_temperature;BMP_pressure;BME280_temperature;BME280_humidity;BME280_pressure;Samples;Min_cycle;Max_cycle;Signal;HPM_P1;HPM_P2
2023/05/31 00:01:35;;;;;;;8.57;7.68;;;15.10;99.90;;;;;;4954341;28;20224;-78
2023/05/31 00:04:02;;;;;;;9.48;8.13;;;15.10;99.90;;;;;;4971823;28;20686;-78
2023/05/31 00:06:29;;;;;;;9.70;8.13;;;15.20;99.90;;;;;;4971248;28;20206;-78
2023/05/31 00:08:57;;;;;;;9.40;8.32;;;15.20;99.90;;;;;;4955169;28;20201;-79
2023/05/31 00:11:26;;;;;;;9.30;8.30;;;15.00;99.90;;;;;;4970165;28;20232;-79
2023/05/31 00:13:55;;;;;;;10.02;9.02;;;15.00;99.90;;;;;;4969127;28;20206;-79
2023/05/31 00:16:22;;;;;;;8.70;7.80;;;15.00;99.90;;;;;;4969903;28;20217;-78
2023/05/31 00:18:50;;;;;;;9.30;8.32;;;15.10;99.90;;;;;;4968778;28;20210;-79
2023/05/31 00:21:17;;;;;;;11.05;9.30;;;15.20;99.90;;;;;;4969215;28;20706;-78
2023/05/31 00:23:44;;;;;;;9.60;8.48;;;15.00;99.90;;;;;;4970163;28;20220;-79
2023/05/31 00:26:12;;;;;;;9.88;8.00;;;14.80;99.90;;;;;;4953619;28;20206;-78
2023/05/31 00:28:40;;;;;;;8.50;7.70;;;14.80;99.90;;;;;;4970494;28;20221;-79
2023/05/31 00:31:09;;;;;;;9.50;8.55;;;14.90;99.90;;;;;;4970238;28;20230;-78
2023/05/31 00:33:56;;;;;;;9.02;8.10;;;14.80;99.90;;;;;;4968254;28;20676;-78
2023/05/31 00:36:23;;;;;;;10.32;8.52;;;14.80;99.90;;;;;;4971816;28;20209;-78
2023/05/31 00:38:51;;;;;;;10.73;8.60;;;14.70;99.90;;;;;;4970850;28;20202;-78
2023/05/31 00:41:18;;;;;;;9.02;8.13;;;14.60;99.90;;;;;;4972381;28;20233;-78
2023/05/31 00:43:46;;;;;;;9.18;7.80;;;14.80;99.90;;;;;;4970658;28;20212;-78
2023/05/31 00:46:24;;;;;;;9.40;8.38;;;15.00;99.90;;;;;;4970363;28;20197;-79
2023/05/31 00:48:51;;;;;;;9.32;8.32;;;15.00;99.90;;;;;;4953225;28;20217;-78
2023/05/31 00:51:19;;;;;;;9.43;8.02;;;14.70;99.90;;;;;;4970056;28;20252;-78
2023/05/31 00:53:47;;;;;;;11.25;8.93;;;14.60;99.90;;;;;;4970039;28;20206;-79
2023/05/31 00:56:16;;;;;;;8.73;7.82;;;14.60;99.90;;;;;;4966690;28;20286;-78
2023/05/31 00:58:45;;;;;;;11.48;9.95;;;14.60;99.90;;;;;;4969984;28;20202;-78
2023/05/31 01:01:15;;;;;;;9.25;8.35;;;14.40;99.90;;;;;;4946892;28;20234;-78
2023/05/31 01:03:42;;;;;;;9.25;8.35;;;14.40;99.90;;;;;;4969933;28;20197;-79
2023/05/31 01:06:11;;;;;;;9.52;8.52;;;14.50;99.90;;;;;;4951512;28;20236;-78
2023/05/31 01:08:39;;;;;;;9.73;8.38;;;14.40;99.90;;;;;;4969791;28;20596;-78
2023/05/31 01:11:26;;;;;;;9.13;8.25;;;14.40;99.90;;;;;;4964130;28;20230;-78
2023/05/31 01:14:02;;;;;;;11.35;8.75;;;14.40;99.90;;;;;;4965652;28;20198;-78
2023/05/31 01:16:38;;;;;;;9.43;8.00;;;14.30;99.90;;;;;;4954123;28;20523;-78
2023/05/31 01:19:09;;;;;;;10.48;8.27;;;14.30;99.90;;;;;;4962955;28;20199;-78
2023/05/31 01:21:57;;;;;;;10.07;9.07;;;14.50;99.90;;;;;;4969475;28;20217;-78
2023/05/31 01:24:32;;;;;;;9.20;8.30;;;14.60;99.90;;;;;;4968060;28;20206;-78
2023/05/31 01:27:02;;;;;;;9.20;8.30;;;14.60;99.90;;;;;;4965160;28;20596;-78
2023/05/31 01:29:33;;;;;;;8.93;7.38;;;14.60;99.90;;;;;;4968036;28;20218;-79
2023/05/31 01:32:02;;;;;;;10.15;9.07;;;14.50;99.90;;;;;;4969045;28;20198;-79
2023/05/31 01:34:29;;;;;;;10.00;8.93;;;14.40;99.90;;;;;;4953030;28;20680;-78
2023/05/31 01:36:56;;;;;;;9.80;8.75;;;14.30;99.90;;;;;;4967024;28;20206;-78
2023/05/31 01:39:24;;;;;;;8.88;7.97;;;14.20;99.90;;;;;;4967859;28;20248;-79
2023/05/31 01:41:53;;;;;;;9.63;8.60;;;14.20;99.90;;;;;;4966699;28;20217;-79
2023/05/31 01:44:22;;;;;;;9.80;8.70;;;14.10;99.90;;;;;;4967521;28;20210;-78
2023/05/31 01:46:50;;;;;;;11.18;8.23;;;14.00;99.90;;;;;;4957842;28;20205;-78
2023/05/31 01:49:18;;;;;;;10.25;8.77;;;14.20;99.90;;;;;;4951785;28;20214;-79
2023/05/31 01:51:46;;;;;;;9.93;8.55;;;14.40;99.90;;;;;;4966202;28;20206;-79
2023/05/31 01:54:15;;;;;;;10.38;8.73;;;14.30;99.90;;;;;;4967288;28;20198;-78
2023/05/31 01:56:43;;;;;;;10.07;9.05;;;14.30;99.90;;;;;;4968279;28;20676;-78
2023/05/31 01:59:12;;;;;;;10.43;9.07;;;14.40;99.90;;;;;;4953352;28;20201;-78
2023/05/31 02:01:42;;;;;;;12.23;8.85;;;14.40;99.90;;;;;;4966366;28;20209;-79
2023/05/31 02:04:09;;;;;;;9.30;8.40;;;14.20;99.90;;;;;;4950249;28;20201;-79
2023/05/31 02:06:37;;;;;;;10.35;8.50;;;14.30;99.90;;;;;;4952785;28;20212;-78
2023/05/31 02:09:06;;;;;;;10.60;8.98;;;14.30;99.90;;;;;;4968232;28;20229;-78
2023/05/31 02:11:33;;;;;;;8.90;8.05;;;14.30;99.90;;;;;;4969358;28;20210;-79
2023/05/31 02:14:00;;;;;;;9.50;8.50;;;14.20;99.90;;;;;;4966816;28;20214;-78
2023/05/31 02:16:28;;;;;;;10.27;8.88;;;13.90;99.90;;;;;;4968148;28;20209;-78
2023/05/31 02:18:58;;;;;;;10.50;8.73;;;14.00;99.90;;;;;;4967770;28;20563;-78
2023/05/31 02:21:25;;;;;;;9.45;8.55;;;14.10;99.90;;;;;;4955864;28;20260;-78
2023/05/31 02:23:53;;;;;;;12.25;8.48;;;14.00;99.90;;;;;;4985767;28;20205;-78
2023/05/31 02:26:21;;;;;;;10.10;9.07;;;14.10;99.90;;;;;;4961825;28;20206;-79
2023/05/31 02:28:49;;;;;;;9.18;8.27;;;14.10;99.90;;;;;;4967814;28;20213;-79
2023/05/31 02:31:17;;;;;;;10.18;9.00;;;14.10;99.90;;;;;;4950500;28;20217;-79
2023/05/31 02:33:45;;;;;;;10.07;8.80;;;14.20;99.90;;;;;;4962594;28;20213;-79
2023/05/31 02:36:14;;;;;;;10.13;9.00;;;14.30;99.90;;;;;;4950684;28;20212;-79
2023/05/31 02:38:41;;;;;;;9.77;8.77;;;14.10;99.90;;;;;;4967973;28;20201;-79
2023/05/31 02:41:09;;;;;;;10.13;9.05;;;13.90;99.90;;;;;;4951732;28;20222;-78
2023/05/31 02:43:48;;;;;;;10.18;9.07;;;13.60;99.90;;;;;;4965384;28;20209;-79
2023/05/31 02:46:17;;;;;;;9.95;8.98;;;13.60;99.90;;;;;;4947968;28;20209;-78
2023/05/31 02:48:45;;;;;;;11.30;9.40;;;13.60;99.90;;;;;;4968168;28;20221;-79
2023/05/31 02:51:14;;;;;;;9.00;7.50;;;13.70;99.90;;;;;;4965765;28;20233;-79
2023/05/31 02:54:04;;;;;;;9.63;8.63;;;13.70;99.90;;;;;;4953112;28;20202;-79
2023/05/31 02:56:34;;;;;;;11.18;8.30;;;13.80;99.90;;;;;;4960283;28;20216;-79
2023/05/31 02:59:16;;;;;;;9.43;8.52;;;13.70;99.90;;;;;;4963935;28;20649;-79
2023/05/31 03:01:49;;;;;;;10.85;8.50;;;13.60;99.90;;;;;;4952973;28;20197;-78
2023/05/31 03:04:35;;;;;;;9.68;8.55;;;13.60;99.90;;;;;;4959013;28;20209;-79
2023/05/31 03:07:06;;;;;;;10.27;9.27;;;13.50;99.90;;;;;;4968703;28;20224;-78
2023/05/31 03:09:33;;;;;;;9.35;8.43;;;13.60;99.90;;;;;;4963259;28;20229;-78
2023/05/31 03:12:03;;;;;;;9.18;8.27;;;13.30;99.90;;;;;;4968255;28;20197;-79
2023/05/31 03:14:31;;;;;;;9.88;8.43;;;13.40;99.90;;;;;;4967913;28;20206;-79
2023/05/31 03:17:00;;;;;;;9.25;8.25;;;13.50;99.90;;;;;;4966641;28;20660;-79
2023/05/31 03:19:28;;;;;;;11.88;9.45;;;13.50;99.90;;;;;;4967664;28;20225;-79
2023/05/31 03:21:55;;;;;;;10.07;9.07;;;13.40;99.90;;;;;;4968914;28;20202;-79
2023/05/31 03:24:27;;;;;;;10.68;8.77;;;13.50;99.90;;;;;;4967492;28;20202;-79
2023/05/31 03:26:55;;;;;;;10.57;9.40;;;13.40;99.90;;;;;;4968508;28;20209;-79
2023/05/31 03:29:23;;;;;;;10.85;9.23;;;13.50;99.90;;;;;;4951662;28;20220;-79
2023/05/31 03:31:51;;;;;;;11.80;9.25;;;13.40;99.90;;;;;;4963911;28;20224;-79
2023/05/31 03:34:18;;;;;;;10.57;9.40;;;13.40;99.90;;;;;;4965294;28;20212;-79
2023/05/31 03:36:46;;;;;;;12.20;9.65;;;13.50;99.90;;;;;;4967507;28;20205;-79
2023/05/31 03:39:47;;;;;;;10.25;8.65;;;13.60;99.90;;;;;;4949221;28;20226;-78
2023/05/31 03:42:26;;;;;;;11.88;8.32;;;13.80;99.90;;;;;;4968916;28;20201;-78
2023/05/31 03:44:54;;;;;;;10.13;9.02;;;13.90;99.90;;;;;;4966882;28;20576;-78
2023/05/31 03:47:21;;;;;;;10.05;8.95;;;13.80;99.90;;;;;;4965534;28;20209;-79
2023/05/31 03:49:49;;;;;;;9.40;8.32;;;13.90;99.90;;;;;;4967245;28;20230;-78
2023/05/31 03:52:16;;;;;;;10.73;9.55;;;14.00;99.90;;;;;;4952707;29;20202;-78
2023/05/31 03:54:44;;;;;;;11.85;9.10;;;14.00;99.90;;;;;;4958149;28;20212;-78
2023/05/31 03:57:12;;;;;;;11.82;9.57;;;13.60;99.90;;;;;;4952067;28;20217;-78
2023/05/31 03:59:41;;;;;;;11.10;8.80;;;13.70;99.90;;;;;;4967533;28;20491;-78
2023/05/31 04:02:08;;;;;;;11.32;9.43;;;13.60;99.90;;;;;;4948728;28;20205;-79
2023/05/31 04:04:36;;;;;;;13.27;11.02;;;13.40;99.90;;;;;;4969439;28;20564;-80
2023/05/31 04:07:04;;;;;;;10.85;9.05;;;13.50;99.90;;;;;;4947023;28;20567;-80
2023/05/31 04:09:31;;;;;;;9.90;8.90;;;13.20;99.90;;;;;;4968157;28;20236;-79
2023/05/31 04:12:00;;;;;;;11.15;9.00;;;13.30;99.90;;;;;;4947984;28;20202;-80
2023/05/31 04:14:28;;;;;;;11.10;9.90;;;13.30;99.90;;;;;;4969941;28;20198;-80
2023/05/31 04:16:58;;;;;;;13.98;10.77;;;13.30;99.90;;;;;;4970096;28;20216;-80
2023/05/31 04:19:26;;;;;;;10.55;9.20;;;13.40;99.90;;;;;;4952600;28;20572;-80
2023/05/31 04:21:53;;;;;;;10.25;9.15;;;13.50;99.90;;;;;;4953743;28;20626;-80
2023/05/31 04:24:21;;;;;;;10.25;9.10;;;13.60;99.90;;;;;;4959370;28;20691;-80
2023/05/31 04:26:49;;;;;;;13.05;10.32;;;13.70;99.90;;;;;;4957577;28;20206;-80
2023/05/31 04:29:17;;;;;;;12.93;9.68;;;13.80;99.90;;;;;;4973440;28;20210;-80
2023/05/31 04:31:46;;;;;;;12.43;10.80;;;13.40;99.90;;;;;;4973144;28;20217;-80
2023/05/31 04:34:17;;;;;;;12.52;9.80;;;13.40;99.90;;;;;;4974162;28;20202;-80
2023/05/31 04:36:48;;;;;;;10.45;9.20;;;13.40;99.90;;;;;;4973054;28;20206;-80
2023/05/31 04:39:16;;;;;;;12.52;10.48;;;13.50;99.90;;;;;;4956564;28;20241;-80
2023/05/31 04:42:05;;;;;;;11.68;9.52;;;13.40;99.90;;;;;;4956738;28;20194;-79
2023/05/31 04:44:33;;;;;;;12.45;10.32;;;13.70;99.90;;;;;;4982441;28;20208;-80
2023/05/31 04:47:01;;;;;;;14.98;9.95;;;13.70;99.90;;;;;;4980003;28;20206;-80
2023/05/31 04:49:29;;;;;;;12.18;10.45;;;13.90;99.90;;;;;;4956353;28;20236;-80
2023/05/31 04:51:57;;;;;;;12.88;10.40;;;14.10;99.90;;;;;;4956795;28;20216;-80
2023/05/31 04:54:24;;;;;;;13.30;10.40;;;14.10;99.90;;;;;;4956726;29;20206;-80
2023/05/31 04:56:52;;;;;;;12.25;10.82;;;14.00;99.90;;;;;;4956482;28;20210;-80
2023/05/31 04:59:20;;;;;;;13.73;10.18;;;14.00;99.90;;;;;;4972636;28;20194;-80
2023/05/31 05:01:49;;;;;;;13.48;9.48;;;14.00;99.90;;;;;;4973203;28;20204;-80
2023/05/31 05:04:19;;;;;;;13.15;11.00;;;14.20;99.90;;;;;;4972557;28;20198;-80
2023/05/31 05:06:47;;;;;;;12.27;10.35;;;14.20;99.90;;;;;;4972121;28;20198;-80
2023/05/31 05:09:15;;;;;;;13.48;10.25;;;14.00;99.90;;;;;;4972587;28;20241;-80
2023/05/31 05:11:43;;;;;;;11.93;10.00;;;14.20;99.90;;;;;;4972882;28;20228;-80
2023/05/31 05:14:11;;;;;;;14.65;10.95;;;14.40;99.90;;;;;;4971004;28;20198;-80
2023/05/31 05:16:39;;;;;;;13.80;11.60;;;14.40;99.90;;;;;;4956123;28;20201;-80
2023/05/31 05:19:07;;;;;;;17.67;12.25;;;14.40;99.90;;;;;;4974414;28;20201;-79
2023/05/31 05:21:39;;;;;;;13.38;11.13;;;14.50;99.90;;;;;;4971742;28;20213;-79
2023/05/31 05:24:07;;;;;;;13.02;11.60;;;14.10;99.90;;;;;;4954637;29;20205;-79
2023/05/31 05:26:35;;;;;;;15.27;12.38;;;14.00;99.90;;;;;;4956649;28;20209;-79
2023/05/31 05:29:02;;;;;;;14.30;11.13;;;13.90;99.90;;;;;;4955972;29;20206;-80
2023/05/31 05:31:36;;;;;;;15.02;11.43;;;14.20;99.90;;;;;;4966178;28;20236;-79
2023/05/31 05:34:06;;;;;;;14.43;11.02;;;14.30;99.90;;;;;;4967001;28;20209;-80
2023/05/31 05:36:33;;;;;;;14.82;10.93;;;14.30;99.90;;;;;;4964250;28;20220;-78
2023/05/31 05:39:06;;;;;;;13.73;10.77;;;14.50;99.90;;;;;;4952603;28;20198;-80
2023/05/31 05:41:34;;;;;;;12.20;10.90;;;14.50;99.90;;;;;;4959358;28;20220;-80
2023/05/31 05:44:02;;;;;;;15.02;11.50;;;14.60;99.90;;;;;;4969546;28;20540;-80
2023/05/31 05:46:32;;;;;;;15.13;11.52;;;14.80;99.90;;;;;;4969060;28;20202;-80
2023/05/31 05:49:02;;;;;;;15.52;11.65;;;14.60;99.90;;;;;;4970265;28;20232;-80
2023/05/31 05:51:30;;;;;;;12.73;11.30;;;14.60;99.90;;;;;;4965730;28;20237;-80
2023/05/31 05:54:01;;;;;;;16.75;12.80;;;14.60;99.90;;;;;;4953724;28;20202;-80
2023/05/31 05:56:36;;;;;;;15.00;11.55;;;14.90;99.90;;;;;;4967134;28;20740;-80
2023/05/31 05:59:06;;;;;;;16.70;12.02;;;14.90;99.90;;;;;;4953369;28;20198;-81
2023/05/31 06:01:58;;;;;;;14.90;12.27;;;14.90;99.90;;;;;;4954864;28;20217;-79
2023/05/31 06:04:28;;;;;;;13.95;11.13;;;15.10;99.90;;;;;;4951240;28;20201;-80
2023/05/31 06:06:56;;;;;;;13.85;11.73;;;15.10;99.90;;;;;;4947102;28;20279;-80
2023/05/31 06:09:23;;;;;;;13.65;11.80;;;15.10;99.90;;;;;;4969989;28;20213;-80
2023/05/31 06:11:52;;;;;;;14.60;11.85;;;15.10;99.90;;;;;;4955208;28;20683;-80
2023/05/31 06:14:21;;;;;;;17.73;11.40;;;15.30;99.90;;;;;;4969352;28;20190;-81
2023/05/31 06:16:52;;;;;;;14.98;11.68;;;15.40;99.90;;;;;;4952019;28;20205;-80
2023/05/31 06:19:19;;;;;;;14.32;11.25;;;15.50;99.90;;;;;;4969334;28;20208;-79
2023/05/31 06:21:49;;;;;;;18.63;13.10;;;15.60;99.90;;;;;;4952375;28;20202;-80
2023/05/31 06:24:17;;;;;;;17.08;11.65;;;15.40;99.90;;;;;;4970725;28;20212;-80
2023/05/31 06:26:44;;;;;;;16.60;11.45;;;15.50;99.90;;;;;;4970797;28;20201;-80
2023/05/31 06:29:14;;;;;;;15.30;11.55;;;15.50;99.90;;;;;;4950112;28;20201;-79
2023/05/31 06:32:13;;;;;;;15.13;11.60;;;15.30;99.90;;;;;;4955210;28;20192;-79
2023/05/31 06:34:45;;;;;;;14.60;10.93;;;15.50;99.90;;;;;;4959405;28;20201;-80
2023/05/31 06:37:14;;;;;;;15.85;11.82;;;15.60;99.90;;;;;;4948792;28;20235;-80
2023/05/31 06:39:42;;;;;;;14.77;11.35;;;15.70;99.90;;;;;;4949138;28;20766;-80
2023/05/31 06:42:10;;;;;;;14.95;11.40;;;15.90;99.90;;;;;;4949783;28;20644;-80
2023/05/31 06:44:48;;;;;;;15.80;11.05;;;16.00;99.90;;;;;;4956941;28;20190;-80
2023/05/31 06:47:25;;;;;;;15.52;11.07;;;16.20;99.90;;;;;;4969224;28;20201;-80
2023/05/31 06:50:22;;;;;;;14.77;11.60;;;16.20;99.90;;;;;;4947811;28;20238;-80
2023/05/31 06:52:52;;;;;;;13.30;10.10;;;16.30;99.90;;;;;;4977397;28;20905;-80
2023/05/31 06:55:31;;;;;;;16.20;11.32;;;16.40;99.90;;;;;;4988047;28;20196;-77
2023/05/31 06:57:58;;;;;;;14.93;11.73;;;16.40;99.90;;;;;;4967167;28;20209;-80
2023/05/31 07:00:27;;;;;;;16.17;12.13;;;16.30;99.90;;;;;;4952766;28;20245;-80
2023/05/31 07:02:55;;;;;;;14.80;11.65;;;16.20;99.90;;;;;;4969499;28;20230;-80
2023/05/31 07:05:23;;;;;;;14.50;11.10;;;16.40;99.90;;;;;;4975997;28;20198;-79
2023/05/31 07:07:51;;;;;;;16.20;11.20;;;16.30;99.90;;;;;;4971771;28;20205;-79
2023/05/31 07:10:20;;;;;;;18.88;12.38;;;16.20;99.90;;;;;;4957129;28;20229;-79
2023/05/31 07:12:48;;;;;;;13.75;10.80;;;16.50;99.90;;;;;;4969766;28;20197;-81
2023/05/31 07:15:15;;;;;;;16.17;10.65;;;16.60;99.90;;;;;;4955232;28;20198;-80
2023/05/31 07:17:45;;;;;;;13.90;10.98;;;16.90;99.90;;;;;;4968369;28;20205;-80
2023/05/31 07:20:13;;;;;;;13.07;9.77;;;16.90;99.90;;;;;;4965694;28;20220;-80
2023/05/31 07:22:40;;;;;;;15.65;9.05;;;17.20;99.90;;;;;;4963757;28;20303;-80
2023/05/31 07:25:08;;;;;;;14.13;9.90;;;17.70;99.90;;;;;;4949373;28;20209;-80
2023/05/31 07:27:36;;;;;;;13.35;9.52;;;17.50;99.90;;;;;;4953185;28;20212;-80
2023/05/31 07:30:04;;;;;;;20.40;10.18;;;17.60;99.90;;;;;;4966110;28;20696;-80
2023/05/31 07:32:32;;;;;;;15.95;9.70;;;17.70;99.90;;;;;;4953692;28;20652;-80
2023/05/31 07:35:01;;;;;;;11.85;9.52;;;17.80;99.90;;;;;;4950902;28;20538;-80
2023/05/31 07:37:28;;;;;;;13.10;8.45;;;17.80;99.90;;;;;;4947734;28;20194;-80
2023/05/31 07:39:56;;;;;;;14.98;9.15;;;17.90;99.90;;;;;;4968072;28;20570;-80
2023/05/31 07:42:23;;;;;;;12.45;8.50;;;18.20;99.90;;;;;;4965903;28;20209;-80
2023/05/31 07:44:51;;;;;;;12.80;8.98;;;18.40;99.90;;;;;;4967017;28;20214;-80
2023/05/31 07:47:19;;;;;;;14.65;8.88;;;18.40;99.90;;;;;;4951882;28;20210;-80
2023/05/31 07:49:47;;;;;;;13.23;9.15;;;18.20;99.90;;;;;;4967307;28;20703;-81
2023/05/31 07:52:21;;;;;;;11.40;8.93;;;18.10;99.90;;;;;;4963907;28;20233;-79
2023/05/31 07:54:49;;;;;;;11.05;8.25;;;18.10;99.90;;;;;;4965127;28;20717;-81
2023/05/31 07:57:17;;;;;;;13.70;6.97;;;18.20;99.90;;;;;;4966809;28;20208;-82
2023/05/31 07:59:45;;;;;;;12.32;8.05;;;18.50;99.90;;;;;;4969487;28;20229;-81
2023/05/31 08:02:12;;;;;;;11.63;9.07;;;18.70;99.90;;;;;;4955183;28;20198;-82
2023/05/31 08:04:51;;;;;;;13.00;9.35;;;18.60;99.90;;;;;;4968707;28;20209;-79
2023/05/31 08:07:20;;;;;;;10.68;7.35;;;18.40;99.90;;;;;;4970804;28;20217;-79
2023/05/31 08:09:47;;;;;;;12.10;7.85;;;18.80;99.90;;;;;;4964170;28;20244;-80
2023/05/31 08:12:17;;;;;;;11.45;8.57;;;18.90;99.90;;;;;;4966615;28;20210;-81
2023/05/31 08:14:56;;;;;;;11.30;8.13;;;18.80;99.90;;;;;;4955699;28;20224;-80
2023/05/31 08:17:23;;;;;;;11.85;8.85;;;18.90;99.90;;;;;;4949075;28;20195;-80
2023/05/31 08:19:51;;;;;;;10.70;7.40;;;18.90;99.90;;;;;;4967470;28;20225;-80
2023/05/31 08:22:26;;;;;;;9.82;7.85;;;19.10;99.90;;;;;;4953759;28;20228;-83
2023/05/31 08:24:55;;;;;;;10.52;7.18;;;19.30;99.90;;;;;;4969513;28;20208;-82
2023/05/31 08:27:23;;;;;;;12.07;9.20;;;19.20;99.90;;;;;;4952718;28;20202;-80
2023/05/31 08:29:50;;;;;;;13.40;6.35;;;18.90;99.90;;;;;;4964223;28;20217;-82
2023/05/31 08:32:18;;;;;;;11.73;7.65;;;19.10;99.90;;;;;;4964346;28;20711;-81
2023/05/31 08:34:51;;;;;;;9.63;6.80;;;19.30;99.90;;;;;;4953113;28;20216;-80
2023/05/31 08:37:20;;;;;;;11.18;7.70;;;19.20;99.90;;;;;;4947665;28;20216;-80
2023/05/31 08:40:14;;;;;;;11.50;6.93;;;19.50;99.90;;;;;;4926643;28;20233;-84
2023/05/31 08:42:56;;;;;;;11.43;8.32;;;19.50;99.90;;;;;;4984453;28;20209;-82
2023/05/31 08:45:23;;;;;;;14.18;8.38;;;19.50;99.90;;;;;;4956190;28;20664;-80
2023/05/31 08:47:58;;;;;;;13.95;7.70;;;19.60;99.90;;;;;;4950936;28;20212;-79
2023/05/31 08:50:29;;;;;;;11.20;8.40;;;19.60;99.90;;;;;;4948374;28;20602;-80
2023/05/31 08:52:57;;;;;;;8.25;7.20;;;19.60;99.90;;;;;;4983826;28;20233;-80
2023/05/31 08:55:27;;;;;;;10.35;7.55;;;19.70;99.90;;;;;;4984320;28;20557;-78
2023/05/31 08:57:55;;;;;;;10.35;6.43;;;19.50;99.90;;;;;;4969610;28;20208;-78
2023/05/31 09:00:23;;;;;;;8.57;7.00;;;19.70;99.90;;;;;;4967912;28;20237;-78
2023/05/31 09:02:51;;;;;;;8.75;6.78;;;19.90;99.90;;;;;;4953245;29;20213;-78
2023/05/31 09:05:19;;;;;;;8.70;7.03;;;19.90;99.90;;;;;;4981000;28;20256;-79
2023/05/31 09:07:49;;;;;;;9.38;7.10;;;20.00;99.90;;;;;;4952199;28;20201;-79
2023/05/31 09:10:17;;;;;;;11.50;6.07;;;20.00;99.90;;;;;;4948491;28;20227;-79
2023/05/31 09:12:46;;;;;;;10.15;6.38;;;20.10;99.90;;;;;;4953954;29;20224;-78
2023/05/31 09:15:15;;;;;;;8.55;6.15;;;20.10;99.90;;;;;;4985565;28;20201;-79
2023/05/31 09:17:44;;;;;;;9.73;5.97;;;20.10;99.80;;;;;;4978908;28;20218;-79
2023/05/31 09:20:12;;;;;;;11.05;6.13;;;20.10;99.50;;;;;;4965299;28;20714;-79
2023/05/31 09:22:40;;;;;;;10.57;6.70;;;20.20;99.90;;;;;;4989435;28;20214;-80
2023/05/31 09:25:08;;;;;;;10.43;6.93;;;20.30;98.90;;;;;;4951851;28;20229;-79
2023/05/31 09:27:38;;;;;;;9.85;5.82;;;20.30;99.90;;;;;;4954184;28;20282;-79
2023/05/31 09:30:09;;;;;;;7.18;5.53;;;20.30;98.40;;;;;;4969083;28;20225;-79
2023/05/31 09:32:37;;;;;;;8.27;5.00;;;20.40;97.10;;;;;;4953476;28;20684;-79
2023/05/31 09:35:12;;;;;;;12.30;8.57;;;20.40;97.10;;;;;;4953468;28;20684;-78
2023/05/31 09:37:44;;;;;;;8.93;5.32;;;20.50;96.50;;;;;;4968608;28;20217;-79
2023/05/31 09:40:14;;;;;;;9.18;5.97;;;20.40;95.80;;;;;;4993831;28;20224;-79
2023/05/31 09:42:51;;;;;;;8.32;5.50;;;20.40;95.30;;;;;;4986016;28;20205;-79
2023/05/31 09:45:21;;;;;;;6.75;4.55;;;20.70;95.70;;;;;;4961059;28;20213;-79
2023/05/31 09:47:49;;;;;;;8.13;4.95;;;20.60;95.70;;;;;;4954415;28;20225;-79
2023/05/31 09:50:18;;;;;;;7.82;4.70;;;20.60;95.40;;;;;;4984426;28;20244;-79
2023/05/31 09:52:46;;;;;;;7.00;4.40;;;20.70;96.00;;;;;;4950050;28;20704;-79
2023/05/31 09:55:14;;;;;;;5.70;4.07;;;20.70;94.70;;;;;;4948704;28;20213;-79
2023/05/31 09:57:43;;;;;;;6.35;4.20;;;20.70;94.60;;;;;;4966701;28;20205;-80
2023/05/31 10:00:14;;;;;;;4.82;3.42;;;20.80;93.00;;;;;;4949625;28;20222;-81
2023/05/31 10:02:46;;;;;;;7.35;4.30;;;21.00;94.20;;;;;;4953442;28;20198;-81
2023/05/31 10:05:15;;;;;;;8.02;4.25;;;21.00;94.20;;;;;;4948912;28;20202;-82
2023/05/31 10:07:44;;;;;;;4.38;3.42;;;21.10;93.00;;;;;;4956468;28;20210;-82
2023/05/31 10:10:11;;;;;;;5.80;2.97;;;21.00;91.10;;;;;;4949970;29;20236;-82
2023/05/31 10:12:45;;;;;;;7.38;3.50;;;21.10;88.90;;;;;;4980131;28;20217;-82
2023/05/31 10:15:16;;;;;;;6.75;3.50;;;21.40;89.70;;;;;;4951188;29;20197;-80
2023/05/31 10:17:51;;;;;;;5.63;3.45;;;21.40;89.50;;;;;;4968480;28;20214;-81
2023/05/31 10:20:30;;;;;;;6.82;3.83;;;21.40;91.30;;;;;;4950057;28;20229;-82
2023/05/31 10:23:02;;;;;;;6.70;3.35;;;21.40;90.60;;;;;;4984403;28;20548;-82
2023/05/31 10:25:36;;;;;;;6.10;3.40;;;21.30;89.50;;;;;;4983704;28;20206;-81
2023/05/31 10:28:10;;;;;;;6.70;4.10;;;21.30;90.20;;;;;;4952221;28;20208;-82
2023/05/31 10:30:41;;;;;;;7.80;3.60;;;21.40;89.20;;;;;;4955218;29;20243;-83
2023/05/31 10:33:15;;;;;;;4.85;2.70;;;21.40;89.10;;;;;;4953376;28;20218;-82
2023/05/31 10:35:42;;;;;;;5.55;2.95;;;21.50;88.00;;;;;;4982759;28;20208;-82
2023/05/31 10:38:13;;;;;;;3.78;3.17;;;21.60;88.00;;;;;;4945542;28;20207;-81
2023/05/31 10:40:48;;;;;;;6.95;3.95;;;21.60;87.90;;;;;;4964351;28;20226;-82
2023/05/31 10:43:23;;;;;;;5.50;2.88;;;21.60;86.60;;;;;;4948677;28;20217;-82
2023/05/31 10:45:55;;;;;;;10.80;3.53;;;21.70;88.90;;;;;;4982587;28;20285;-82
2023/05/31 10:48:33;;;;;;;5.43;3.60;;;21.80;87.30;;;;;;4976899;28;20682;-82
2023/05/31 10:51:01;;;;;;;6.22;3.53;;;21.80;89.50;;;;;;4964885;28;20225;-82
2023/05/31 10:53:30;;;;;;;5.75;3.92;;;21.90;88.90;;;;;;4948212;28;20225;-81
2023/05/31 10:56:04;;;;;;;5.53;3.67;;;21.80;88.40;;;;;;4979723;28;20217;-81
2023/05/31 10:58:36;;;;;;;5.10;3.05;;;21.90;89.00;;;;;;4982436;28;20671;-81
2023/05/31 11:01:06;;;;;;;6.72;3.45;;;22.00;87.60;;;;;;4963635;28;20232;-81
2023/05/31 11:03:36;;;;;;;7.53;3.30;;;22.20;88.00;;;;;;4949244;28;20205;-82
2023/05/31 11:06:08;;;;;;;5.38;3.17;;;22.30;87.50;;;;;;4980318;28;20648;-81
2023/05/31 11:08:37;;;;;;;6.75;3.25;;;22.20;84.90;;;;;;4948909;29;20210;-81
2023/05/31 11:11:27;;;;;;;6.32;3.40;;;22.20;87.10;;;;;;4951118;29;20232;-80
2023/05/31 11:14:03;;;;;;;5.80;2.80;;;22.20;85.00;;;;;;4947345;29;20696;-81
2023/05/31 11:16:32;;;;;;;4.53;2.58;;;22.40;85.70;;;;;;4952153;29;20200;-80
2023/05/31 11:19:15;;;;;;;4.78;2.95;;;22.40;86.30;;;;;;4967110;28;20217;-81
2023/05/31 11:21:47;;;;;;;6.20;3.22;;;22.50;83.30;;;;;;4976197;28;20664;-80
2023/05/31 11:24:27;;;;;;;5.00;2.70;;;22.50;83.60;;;;;;4968209;28;20656;-81
2023/05/31 11:26:55;;;;;;;3.90;2.72;;;22.50;82.90;;;;;;4954782;28;20205;-81
2023/05/31 11:29:23;;;;;;;3.78;2.85;;;22.70;85.10;;;;;;4950649;29;20208;-81
2023/05/31 11:32:01;;;;;;;4.57;2.83;;;22.80;83.80;;;;;;4968097;28;20215;-79
2023/05/31 11:34:35;;;;;;;6.45;2.92;;;23.00;83.90;;;;;;4967221;28;21700;-81
2023/05/31 11:37:04;;;;;;;4.63;3.10;;;23.00;82.20;;;;;;4955423;28;20226;-80
2023/05/31 11:39:32;;;;;;;7.18;3.13;;;22.90;82.00;;;;;;4985763;28;20217;-81
2023/05/31 11:42:00;;;;;;;5.50;3.05;;;23.10;83.70;;;;;;4964650;28;20212;-80
2023/05/31 11:44:41;;;;;;;4.32;3.08;;;23.10;82.10;;;;;;4950223;28;20221;-81
2023/05/31 11:47:11;;;;;;;4.40;2.50;;;23.10;81.80;;;;;;4985867;28;20206;-81
2023/05/31 11:49:40;;;;;;;4.85;3.10;;;23.20;81.10;;;;;;4993376;28;20233;-81
2023/05/31 11:52:07;;;;;;;5.85;3.13;;;23.30;80.90;;;;;;4987998;28;20213;-80
2023/05/31 11:54:35;;;;;;;5.38;2.40;;;23.30;80.60;;;;;;4974473;28;20676;-80
2023/05/31 11:57:06;;;;;;;5.35;2.90;;;23.60;80.40;;;;;;4982436;28;20198;-79
2023/05/31 11:59:34;;;;;;;5.25;3.08;;;23.60;80.00;;;;;;4984723;28;20229;-79
2023/05/31 12:02:03;;;;;;;4.03;2.78;;;23.50;79.50;;;;;;4978429;28;20217;-80
2023/05/31 12:04:32;;;;;;;7.22;3.00;;;23.60;80.30;;;;;;4954500;28;20212;-80
2023/05/31 12:07:01;;;;;;;5.93;2.97;;;23.70;78.70;;;;;;4943400;28;20206;-79
2023/05/31 12:09:29;;;;;;;4.25;2.50;;;23.70;80.80;;;;;;4969162;28;20217;-80
2023/05/31 12:11:57;;;;;;;3.88;2.75;;;23.80;80.50;;;;;;4955292;28;20202;-79
2023/05/31 12:14:35;;;;;;;3.97;3.08;;;23.70;80.50;;;;;;4962330;28;20231;-79
2023/05/31 12:17:04;;;;;;;4.20;3.13;;;23.70;81.10;;;;;;4983248;28;20214;-79
2023/05/31 12:19:31;;;;;;;4.45;3.28;;;23.90;79.50;;;;;;4953144;28;20237;-80
2023/05/31 12:22:03;;;;;;;5.65;3.05;;;24.10;79.90;;;;;;4984582;28;20209;-81
2023/05/31 12:24:31;;;;;;;4.05;2.53;;;24.20;80.00;;;;;;4953851;28;20206;-79
2023/05/31 12:26:59;;;;;;;4.80;2.92;;;24.00;80.50;;;;;;4956262;28;20206;-80
2023/05/31 12:29:32;;;;;;;6.85;3.13;;;24.30;79.10;;;;;;4988046;28;20202;-79
2023/05/31 12:32:05;;;;;;;3.85;2.40;;;24.40;78.00;;;;;;4964243;28;20202;-79
2023/05/31 12:34:35;;;;;;;5.22;2.78;;;24.50;78.40;;;;;;4955285;28;20217;-80
2023/05/31 12:37:07;;;;;;;4.20;2.50;;;24.60;77.30;;;;;;4968547;28;20206;-79
2023/05/31 12:39:36;;;;;;;5.53;2.80;;;24.80;77.00;;;;;;4974757;28;20228;-80
2023/05/31 12:42:05;;;;;;;3.90;2.05;;;24.90;78.10;;;;;;4986293;28;20683;-81
2023/05/31 12:44:34;;;;;;;3.95;2.38;;;25.10;79.60;;;;;;4965835;28;20656;-79
2023/05/31 12:47:03;;;;;;;4.65;2.50;;;25.20;77.40;;;;;;4986022;28;20224;-80
2023/05/31 12:49:31;;;;;;;5.63;2.60;;;25.00;77.00;;;;;;4995010;28;20212;-78
2023/05/31 12:52:00;;;;;;;4.05;2.50;;;25.00;77.20;;;;;;4964055;28;20671;-79
2023/05/31 12:54:30;;;;;;;3.70;2.20;;;25.10;75.20;;;;;;4953029;28;20206;-77